• Join FlightAware (Why Join?)
  • Login
  • US Flag 
06:16PM EST


 

Airport Tracker/Info


-or-


 

Live Flight TrackerFlight Track Log ✈ CHQ6046 ✈ 17-May-2012 ✈ KCLT - KCVG

Flight Track Log - Related Links

Times and Time Zones

All times are in EDT time to prevent confusion due to time zone crossing. See the CHQ6046 flight status page for this flight to view local times or setup timezone preferences in your user account.

Time Position Orientation Groundspeed Altitude Reporting Facility
EDT Latitude Longitude Course Direction KTS MPH feet Rate Location/Type
07:09AM 35.1872 -80.9536 179° South 170 196 1,400  Level Atlanta Center
07:09AM 35.1656 -80.9533 222° Southwest 178 205 2,500 2,040 Climbing FAA TRACON SMA TRACON (SMA)
07:10AM 35.1378 -80.9839 269° West 208 239 3,800 1,860 Climbing FAA TRACON SMA TRACON (SMA)
07:10AM 35.1372 -81.0317 342° North 231 266 5,000 2,100 Climbing FAA TRACON SMA TRACON (SMA)
07:11AM 35.1753 -81.0467 21° North 226 260 6,600 1,860 Climbing FAA TRACON SMA TRACON (SMA)
07:12AM 35.2175 -81.0264 22° Northeast 256 295 7,500 1,860 Climbing FAA TRACON SMA TRACON (SMA)
07:12AM 35.2650 -81.0028 24° Northeast 270 311 9,100 2,220 Climbing FAA TRACON SMA TRACON (SMA)
07:13AM 35.3136 -80.9758 23° Northeast 274 315 10,500 1,860 Climbing FAA TRACON SMA TRACON (SMA)
07:14AM 35.3647 -80.9489 17° North 285 328 11,600 1,380 Climbing FAA TRACON SMA TRACON (SMA)
07:14AM 35.4161 -80.9292 North 308 354 12,400 1,620 Climbing FAA TRACON SMA TRACON (SMA)
07:15AM 35.4769 -80.9186 North 316 364 13,800 1,740 Climbing FAA TRACON SMA TRACON (SMA)
07:16AM 35.5344 -80.9106 North 321 369 14,700 1,320 Climbing FAA TRACON SMA TRACON (SMA)
07:16AM 35.5961 -80.9028 360° North 328 377 15,600 1,380 Climbing FAA TRACON SMA TRACON (SMA)
07:17AM 35.6625 -80.9022 329° Northwest 341 392 16,600 1,500 Climbing FAA TRACON SMA TRACON (SMA)
07:18AM 35.7192 -80.9444 307° West 348 400 17,600 1,380 Climbing FAA TRACON SMA TRACON (SMA)
07:18AM 35.7564 -81.0056 307° West 361 415 18,500 1,680 Climbing FAA TRACON SMA TRACON (SMA)
07:19AM 35.7972 -81.0717 307° West 353 406 19,900 1,920 Climbing FAA TRACON SMA TRACON (SMA)
07:20AM 35.8381 -81.1381 307° West 352 405 21,100 1,500 Climbing FAA TRACON SMA TRACON (SMA)
07:20AM 35.8750 -81.1989 307° West 353 406 21,900 660 Climbing FAA TRACON SMA TRACON (SMA)
07:21AM 35.9175 -81.2686 307° West 366 421 22,000 60 Climbing FAA TRACON SMA TRACON (SMA)
07:22AM 35.9644 -81.3447 308° West 399 459 22,000  Level FAA TRACON SMA TRACON (SMA)
07:23AM 36.0353 -81.4556 306° West 415 478 22,000  Level Atlanta Center
07:24AM 36.1044 -81.5717 307° West 420 483 22,000  Level Atlanta Center
07:25AM 36.1756 -81.6878 307° West 425 489 22,000  Level Atlanta Center
07:26AM 36.2550 -81.8192 306° West 420 483 22,000  Level Atlanta Center
07:27AM 36.3153 -81.9233 306° West 426 490 22,000  Level Atlanta Center
07:28AM 36.3861 -82.0425 307° West 419 482 22,000  Level Atlanta Center
07:29AM 36.4569 -82.1594 306° West 419 482 22,000  Level Atlanta Center
07:30AM 36.5339 -82.2894 306° West 424 488 22,000  Level Atlanta Center
07:31AM 36.6042 -82.4094 307° West 424 488 22,000  Level Atlanta Center
07:33AM 36.7650 -82.6808 306° West 422 486 22,000  Level Indianapolis Center
07:34AM 36.8328 -82.7967 306° West 422 486 22,000  Level Indianapolis Center
07:35AM 36.9044 -82.9181 306° West 422 486 22,000  Level Indianapolis Center
07:36AM 36.9800 -83.0475 307° West 427 491 22,000  Level Indianapolis Center
07:37AM 37.0514 -83.1667 306° West 427 491 22,000  Level Indianapolis Center
07:38AM 37.1186 -83.2836 306° West 427 491 22,000  Level Indianapolis Center
07:39AM 37.1875 -83.4033 306° West 427 491 22,000  Level Indianapolis Center
07:40AM 37.2564 -83.5206 317° Northwest 427 491 22,000  Level Indianapolis Center
07:41AM 37.3400 -83.6172 357° North 420 483 22,000  Level Indianapolis Center
07:42AM 37.4567 -83.6250 North 393 452 22,000  Level Indianapolis Center
07:43AM 37.5756 -83.6042 351° North 432 497 22,000  Level Indianapolis Center
07:44AM 37.6903 -83.6278 331° Northwest 422 486 22,000  Level Indianapolis Center
07:45AM 37.7906 -83.6989 330° Northwest 408 470 22,000  Level Indianapolis Center
07:46AM 37.8925 -83.7728 331° Northwest 420 483 22,000 -600 Level Indianapolis Center
07:47AM 37.9925 -83.8442 332° Northwest 420 483 20,800 -1,860 Descending Indianapolis Center
07:48AM 38.0903 -83.9106 329° Northwest 407 468 18,300 -2,340 Descending Indianapolis Center
07:49AM 38.1819 -83.9797 330° Northwest 390 449 16,200 -1,980 Descending Indianapolis Center
07:50AM 38.2631 -84.0383 332° Northwest 380 437 14,400 -1,980 Descending Indianapolis Center
07:51AM 38.3544 -84.1000 326° Northwest 374 430 12,300 -1,800 Descending Indianapolis Center
07:52AM 38.4356 -84.1694 320° Northwest 363 418 10,900 -720 Descending Indianapolis Center
07:53AM 38.5061 -84.2444 322° Northwest 342 394 10,900 -300 Level Indianapolis Center
07:54AM 38.5764 -84.3142 313° West 327 376 10,400 -840 Descending Indianapolis Center
07:55AM 38.6261 -84.3836 301° West 286 329 9,300 -1,500 Descending Indianapolis Center
07:56AM 38.6631 -84.4639 279° West 263 303 7,400 -1,620 Descending Indianapolis Center
07:57AM 38.6747 -84.5544 278° West 246 283 6,100 -900 Descending Indianapolis Center
07:58AM 38.6825 -84.6292 299° West 239 275 5,700 -480 Descending Indianapolis Center
07:59AM 38.7069 -84.6853 287° West 194 223 5,200 2,640 Descending Indianapolis Center
08:00AM 38.7231 -84.7522 285° West 194 223 11,000 2,880 Climbing Indianapolis Center
08:01AM 38.7369 -84.8189 39° Northeast 194 223 11,000 -3,180 Level Indianapolis Center
08:03AM 38.9000 -84.6500 360° North 173 199 3,400 -3,600 Descending Cincinnati TRACON
08:04AM 38.9500 -84.6500 360° North 171 197 2,400 -900 Descending Cincinnati TRACON
08:05AM 39.0167 -84.6500 322° Northwest 150 173 1,400 -780 Descending Cincinnati TRACON
08:12AM 39.0333 -84.6667 322° Northwest  Level FlightAware Approximate